Flight Track Log - Related Links

Times and Time Zones

All times are in EDT time to prevent confusion due to time zone crossing. See the DAL245 flight status page for this flight to view local times or setup timezone preferences in your user account.

Time Position Orientation Groundspeed Altitude Reporting Facility
EDT Latitude Longitude Course Direction KTS MPH feet Rate Location/Type
Tue 07:46:10 PM 40.6333 -73.6833 285° West 245 282 3,300  Level New York TRACON
Tue 07:47:00 PM 40.9972 -73.7667 North  Level FlightAware Approximate
Tue 07:47:10 PM 40.6833 -73.6167 45° Northeast 268 308 6,600  Level New York TRACON
Tue 07:48:00 PM 41.1035 -73.7908 281° West  Level FlightAware Approximate
Tue 07:48:10 PM 40.7500 -73.5500 37° Northeast 288 331 9,400  Level New York TRACON
Tue 07:49:00 PM 41.1333 -73.9435 270° West  Level FlightAware Approximate
Tue 07:49:10 PM 40.8333 -73.5500 360° North 329 379 11,600  Level New York TRACON
Tue 07:50:00 PM 41.1612 -74.0890 304° West  Level FlightAware Approximate
Tue 07:51:00 PM 41.1792 -74.2458 285° West  Level FlightAware Approximate
Tue 07:51:29 PM 41.0275 -73.7006 330° Northwest 354 407 17,900  Level New York Center
Tue 07:52:30 PM 41.1047 -73.7725 325° Northwest 364 419 19,200 1,339 Climbing New York Center
Tue 07:53:30 PM 41.1408 -73.9092 289° West 369 425 20,600 1,300 Climbing New York Center
Tue 07:54:30 PM 41.1636 -74.0592 281° West 384 442 21,800 1,140 Climbing New York Center
Tue 07:55:31 PM 41.1836 -74.2392 278° West 413 475 22,900 908 Climbing New York Center
Tue 07:56:29 PM 41.1972 -74.4081 276° West 447 514 23,600 1,059 Climbing New York Center
Tue 07:57:30 PM 41.1525 -74.5683 250° West 454 522 25,000 1,328 Climbing New York Center
Tue 07:58:31 PM 41.0853 -74.7131 238° Southwest 454 522 26,300 1,210 Climbing New York Center
Tue 07:59:29 PM 41.0158 -74.8631 239° Southwest 467 537 27,400 1,271 Climbing New York Center
Tue 08:00:29 PM 40.9539 -75.0214 243° Southwest 472 543 28,800 1,339 Climbing New York Center
Tue 08:01:30 PM 40.9125 -75.1864 252° West 482 555 30,100 1,240 Climbing New York Center
Tue 08:02:30 PM 40.8722 -75.3619 253° West 489 563 31,300 1,240 Climbing New York Center
Tue 08:03:31 PM 40.8344 -75.5322 254° West 489 563 32,600 1,271 Climbing New York Center
Tue 08:04:28 PM 40.7942 -75.7022 253° West 489 563 33,800 712 Climbing New York Center
Tue 08:05:29 PM 40.7558 -75.8667 253° West 483 556 34,000 98 Climbing New York Center
Tue 08:06:31 PM 40.7153 -76.0306 252° West 483 556 34,000  Level New York Center
Tue 08:07:29 PM 40.6747 -76.1944 252° West 478 550 34,000  Level New York Center
Tue 08:08:30 PM 40.6831 -76.3675 274° West 468 539 34,000  Level New York Center
Tue 08:09:30 PM 40.7081 -76.5447 281° West 479 551 34,000  Level New York Center
Tue 08:10:30 PM 40.7347 -76.7225 281° West 490 564 34,000  Level New York Center
Tue 08:11:29 PM 40.7614 -76.8947 282° West 490 564 34,000  Level New York Center
Tue 08:12:31 PM 40.7875 -77.0697 281° West 490 564 34,000  Level New York Center
Tue 08:13:31 PM 40.8114 -77.2475 280° West 490 564 34,000  Level New York Center
Tue 08:14:31 PM 40.8392 -77.4203 282° West 485 558 34,000  Level New York Center
Tue 08:15:28 PM 40.8625 -77.5953 280° West 485 558 34,000  Level New York Center
Tue 08:17:45 PM 40.9131 -77.9783 280° West 506 582 34,000  Level Cleveland Center
Tue 08:18:45 PM 40.9358 -78.1561 280° West 494 568 34,000  Level Cleveland Center
Tue 08:19:45 PM 40.9606 -78.3478 280° West 489 563 34,000  Level Cleveland Center
Tue 08:20:45 PM 40.9825 -78.5231 279° West 484 557 34,000  Level Cleveland Center
Tue 08:21:45 PM 41.0044 -78.7011 279° West 489 563 34,000  Level Cleveland Center
Tue 08:22:45 PM 41.0239 -78.8794 278° West 489 563 34,000  Level Cleveland Center
Tue 08:23:45 PM 41.0264 -79.0611 271° West 489 563 34,000  Level Cleveland Center
Tue 08:24:45 PM 41.0308 -79.2400 272° West 489 563 34,000  Level Cleveland Center
Tue 08:25:45 PM 41.0328 -79.4161 271° West 489 563 34,000  Level Cleveland Center
Tue 08:26:45 PM 41.0364 -79.5950 272° West 489 563 34,000  Level Cleveland Center
Tue 08:27:45 PM 41.0378 -79.7792 271° West 494 568 34,000  Level Cleveland Center
Tue 08:28:45 PM 41.0389 -79.9556 271° West 494 568 34,000  Level Cleveland Center
Tue 08:29:45 PM 41.0439 -80.1400 272° West 494 568 34,000  Level Cleveland Center
Tue 08:30:45 PM 41.0444 -80.3161 270° West 494 568 34,000  Level Cleveland Center
Tue 08:31:45 PM 41.0469 -80.4950 271° West 494 568 34,000  Level Cleveland Center
Tue 08:32:45 PM 41.0469 -80.6767 270° West 494 568 34,000  Level Cleveland Center
Tue 08:33:45 PM 41.0486 -80.8503 271° West 489 563 34,000  Level Cleveland Center
Tue 08:34:45 PM 41.0481 -81.0264 270° West 484 557 34,000 50 Level Cleveland Center
Tue 08:35:45 PM 41.0453 -81.2108 269° West 493 567 34,100 650 Climbing Cleveland Center
Tue 08:36:45 PM 41.0442 -81.3869 270° West 493 567 35,300 950 Climbing Cleveland Center
Tue 08:37:45 PM 41.0428 -81.5631 269° West 486 559 36,000 350 Climbing Cleveland Center
Tue 08:38:45 PM 41.0433 -81.7200 270° West 486 559 36,000  Level Cleveland Center
Tue 08:39:45 PM 41.0436 -81.8964 270° West 475 547 36,000  Level Cleveland Center
Tue 08:40:45 PM 41.0436 -82.0697 270° West 475 547 36,000  Level Cleveland Center
Tue 08:41:45 PM 41.0408 -82.2625 269° West 475 547 36,000  Level Cleveland Center
Tue 08:42:45 PM 41.0403 -82.4358 270° West 470 541 36,000  Level Cleveland Center
Tue 08:43:45 PM 41.0372 -82.6092 269° West 475 547 36,000  Level Cleveland Center
Tue 08:44:45 PM 41.0339 -82.7853 269° West 475 547 36,000  Level Cleveland Center
Tue 08:45:45 PM 41.0328 -82.9533 270° West 470 541 36,000  Level Cleveland Center
Tue 08:46:45 PM 41.0311 -83.1264 269° West 476 548 36,000  Level Cleveland Center
Tue 08:47:45 PM 41.0294 -83.2833 269° West 476 548 36,000  Level Cleveland Center
Tue 08:48:45 PM 41.0269 -83.4733 269° West 476 548 36,000  Level Cleveland Center
Tue 08:50:36 PM 41.0186 -83.7992 268° West 485 558 36,000  Level Chicago Center
Tue 08:51:38 PM 41.0144 -83.9753 268° West 480 552 36,000  Level Chicago Center
Tue 08:52:40 PM 41.0100 -84.1542 268° West 485 558 36,000  Level Chicago Center
Tue 08:53:42 PM 41.0061 -84.3306 268° West 482 555 36,000  Level Chicago Center
Tue 08:54:44 PM 41.0000 -84.5050 267° West 475 547 36,000  Level Chicago Center
Tue 08:55:46 PM 40.9953 -84.6822 268° West 477 549 36,000  Level Chicago Center
Tue 08:56:48 PM 40.9889 -84.8906 268° West 475 547 36,000  Level Chicago Center
Tue 08:57:50 PM 40.9831 -85.0636 267° West 471 542 36,000  Level Chicago Center
Tue 08:58:53 PM 40.9739 -85.2361 266° West 470 541 36,000  Level Chicago Center
Tue 08:59:55 PM 40.9525 -85.4039 260° West 463 533 36,000  Level Chicago Center
Tue 09:00:57 PM 40.9308 -85.5753 261° West 470 541 36,000  Level Chicago Center
Tue 09:01:59 PM 40.9094 -85.7464 261° West 472 543 36,000  Level Chicago Center
Tue 09:03:01 PM 40.8872 -85.9183 260° West 473 544 36,000  Level Chicago Center
Tue 09:04:03 PM 40.8625 -86.1256 261° West 475 547 36,000  Level Chicago Center
Tue 09:05:05 PM 40.8400 -86.3000 260° West 480 552 36,000  Level Chicago Center
Tue 09:06:07 PM 40.8167 -86.4728 260° West 479 551 36,000  Level Chicago Center
Tue 09:07:09 PM 40.7942 -86.6458 260° West 478 550 36,000  Level Chicago Center
Tue 09:08:11 PM 40.7694 -86.8281 260° West 467 537 36,000  Level Chicago Center
Tue 09:09:13 PM 40.7475 -86.9936 260° West 462 532 36,000  Level Chicago Center
Tue 09:10:15 PM 40.7242 -87.1589 259° West 460 529 36,000  Level Chicago Center
Tue 09:11:17 PM 40.7008 -87.3239 259° West 459 528 36,000 -532 Level Chicago Center
Tue 09:12:19 PM 40.6722 -87.5183 259° West 454 522 34,900 -968 Descending Chicago Center
Tue 09:13:21 PM 40.6478 -87.6811 259° West 453 521 34,000 -435 Descending Chicago Center
Tue 09:14:23 PM 40.6211 -87.8458 258° West 458 527 34,000  Level Chicago Center
Tue 09:15:25 PM 40.5950 -88.0094 258° West 458 527 34,000  Level Chicago Center
Tue 09:16:27 PM 40.5678 -88.1750 258° West 462 532 34,000  Level Chicago Center
Tue 09:17:28 PM 40.5419 -88.3411 258° West 464 534 34,000  Level Chicago Center
Tue 09:18:30 PM 40.5164 -88.5042 258° West 458 527 34,000  Level Chicago Center
Tue 09:19:32 PM 40.4831 -88.6981 257° West 456 525 34,000  Level Chicago Center
Tue 09:20:34 PM 40.4564 -88.8614 258° West 458 527 34,000  Level Chicago Center
Tue 09:21:36 PM 40.4297 -89.0250 258° West 459 528 34,000  Level Chicago Center
Tue 09:22:38 PM 40.4031 -89.1853 258° West 454 522 34,000  Level Chicago Center
Tue 09:23:39 PM 40.3753 -89.3467 257° West 455 524 34,000  Level Chicago Center
Tue 09:24:41 PM 40.3486 -89.5072 258° West 454 522 34,000  Level Chicago Center
Tue 09:25:43 PM 40.3119 -89.6989 256° West 456 525 34,000  Level Chicago Center
Tue 09:26:44 PM 40.2844 -89.8589 257° West 454 522 34,000  Level Chicago Center
Tue 09:27:46 PM 40.2597 -89.9989 257° West 451 519 34,000  Level Chicago Center
Tue 09:28:48 PM 40.2264 -90.1894 257° West 451 519 34,000  Level Chicago Center
Tue 09:29:49 PM 40.1969 -90.3464 256° West 450 518 34,000  Level Chicago Center
Tue 09:30:51 PM 40.1686 -90.5031 257° West 449 517 34,000  Level Chicago Center
Tue 09:31:53 PM 40.1394 -90.6603 256° West 450 518 34,000  Level Chicago Center
Tue 09:32:54 PM 40.1106 -90.8147 256° West 445 512 34,000  Level Chicago Center
Tue 09:33:56 PM 40.0822 -90.9681 256° West 438 504 34,000  Level Chicago Center
Tue 09:34:57 PM 40.0469 -91.1536 256° West 442 509 34,000  Level Chicago Center
Tue 09:35:59 PM 40.0178 -91.3042 256° West 433 498 34,000  Level Chicago Center
Tue 09:37:00 PM 39.9892 -91.4561 256° West 434 499 34,000  Level Chicago Center
Tue 09:38:02 PM 39.9608 -91.6069 256° West 432 497 34,000  Level Chicago Center
Tue 09:39:04 PM 39.9297 -91.7581 255° West 434 499 34,000  Level Chicago Center
Tue 09:40:16 PM 39.8933 -91.9417 256° West 434 499 34,000  Level Kansas City Center
Tue 09:41:18 PM 39.8642 -92.0906 256° West 429 494 34,000  Level Kansas City Center
Tue 09:42:19 PM 39.8342 -92.2408 255° West 431 496 34,000  Level Kansas City Center
Tue 09:43:21 PM 39.7967 -92.4217 255° West 431 496 34,000  Level Kansas City Center
Tue 09:44:22 PM 39.7672 -92.5714 256° West 430 495 34,000  Level Kansas City Center
Tue 09:45:24 PM 39.7361 -92.7231 255° West 432 497 34,000  Level Kansas City Center
Tue 09:46:25 PM 39.7053 -92.8731 255° West 433 498 34,000  Level Kansas City Center
Tue 09:47:27 PM 39.6728 -93.0214 254° West 431 496 34,000  Level Kansas City Center
Tue 09:48:28 PM 39.6411 -93.1719 255° West 433 498 34,000  Level Kansas City Center
Tue 09:49:29 PM 39.6106 -93.3228 255° West 435 501 34,000  Level Kansas City Center
Tue 09:50:31 PM 39.5781 -93.4742 254° West 437 503 34,000  Level Kansas City Center
Tue 09:51:32 PM 39.5400 -93.6569 255° West 441 507 34,000  Level Kansas City Center
Tue 09:52:34 PM 39.5022 -93.8044 252° West 435 501 34,000  Level Kansas City Center
Tue 09:53:35 PM 39.4581 -93.9439 248° West 437 503 34,000  Level Kansas City Center
Tue 09:54:37 PM 39.4089 -94.1061 249° West 435 501 34,000  Level Kansas City Center
Tue 09:55:38 PM 39.3661 -94.2447 248° West 433 498 34,000  Level Kansas City Center
Tue 09:56:39 PM 39.3183 -94.3769 245° Southwest 423 487 34,000  Level Kansas City Center
Tue 09:57:41 PM 39.2472 -94.5253 238° Southwest 431 496 34,000  Level Kansas City Center
Tue 09:58:42 PM 39.1878 -94.6508 239° Southwest 429 494 34,000  Level Kansas City Center
Tue 09:59:44 PM 39.1169 -94.8006 239° Southwest 436 502 34,000  Level Kansas City Center
Tue 10:00:45 PM 39.0569 -94.9292 239° Southwest 435 501 34,000  Level Kansas City Center
Tue 10:01:46 PM 38.9947 -95.0581 238° Southwest 438 504 34,000  Level Kansas City Center
Tue 10:02:48 PM 38.9231 -95.2078 238° Southwest 436 502 34,000  Level Kansas City Center
Tue 10:03:49 PM 38.8628 -95.3367 239° Southwest 436 502 34,000  Level Kansas City Center
Tue 10:04:50 PM 38.7897 -95.4528 231° Southwest 438 504 34,000  Level Kansas City Center
Tue 10:05:52 PM 38.6889 -95.5728 223° Southwest 443 510 34,000  Level Kansas City Center
Tue 10:06:53 PM 38.6036 -95.6731 223° Southwest 438 504 34,000  Level Kansas City Center
Tue 10:07:54 PM 38.5183 -95.7750 223° Southwest 438 504 34,000  Level Kansas City Center
Tue 10:08:56 PM 38.4164 -95.8925 222° Southwest 440 506 34,000  Level Kansas City Center
Tue 10:09:57 PM 38.3283 -95.9919 222° Southwest 442 509 34,000  Level Kansas City Center
Tue 10:10:58 PM 38.2239 -96.1083 221° Southwest 445 512 34,000  Level Kansas City Center
Tue 10:11:59 PM 38.1300 -96.2075 220° Southwest 449 517 34,000  Level Kansas City Center
Tue 10:13:00 PM 38.0314 -96.3053 218° Southwest 449 517 34,000  Level Kansas City Center
Tue 10:14:02 PM 37.9331 -96.4025 218° Southwest 447 514 34,000  Level Kansas City Center
Tue 10:15:03 PM 37.8717 -96.5267 238° Southwest 425 489 34,000  Level Kansas City Center
Tue 10:16:04 PM 37.8494 -96.6689 259° West 412 474 34,000  Level Kansas City Center
Tue 10:17:05 PM 37.8247 -96.8103 258° West 412 474 34,000  Level Kansas City Center
Tue 10:18:06 PM 37.8006 -96.9531 258° West 415 478 34,000  Level Kansas City Center
Tue 10:19:07 PM 37.7756 -97.0969 258° West 418 481 34,000  Level Kansas City Center
Tue 10:20:08 PM 37.7503 -97.2408 258° West 418 481 34,000  Level Kansas City Center
Tue 10:21:09 PM 37.7267 -97.3831 258° West 414 476 34,000  Level Kansas City Center
Tue 10:22:10 PM 37.7003 -97.5239 257° West 412 474 34,000  Level Kansas City Center
Tue 10:23:12 PM 37.6761 -97.6658 258° West 409 471 34,000  Level Kansas City Center
Tue 10:24:13 PM 37.6458 -97.8364 257° West 409 471 34,000  Level Kansas City Center
Tue 10:25:14 PM 37.6208 -97.9786 258° West 410 472 34,000  Level Kansas City Center
Tue 10:26:15 PM 37.5958 -98.1189 257° West 408 470 34,000  Level Kansas City Center
Tue 10:27:16 PM 37.5714 -98.2544 257° West 396 456 34,000  Level Kansas City Center
Tue 10:28:17 PM 37.5458 -98.3897 257° West 396 456 34,000  Level Kansas City Center
Tue 10:29:18 PM 37.5214 -98.5244 257° West 394 453 34,000  Level Kansas City Center
Tue 10:30:19 PM 37.4958 -98.6614 257° West 399 459 34,000  Level Kansas City Center
Tue 10:31:20 PM 37.4717 -98.8019 258° West 405 466 34,000  Level Kansas City Center
Tue 10:32:21 PM 37.4425 -98.9403 255° West 409 471 34,000  Level Kansas City Center
Tue 10:33:22 PM 37.4153 -99.0853 257° West 423 487 34,000  Level Kansas City Center
Tue 10:34:23 PM 37.3883 -99.2292 257° West 423 487 34,000  Level Kansas City Center
Tue 10:35:24 PM 37.3608 -99.3733 257° West 424 488 34,000  Level Kansas City Center
Tue 10:36:25 PM 37.2917 -99.5156 239° Southwest 427 491 34,000 246 Level Kansas City Center
Tue 10:37:26 PM 37.2272 -99.6358 236° Southwest 430 495 34,500 984 Climbing Kansas City Center
Tue 10:38:27 PM 37.1542 -99.7753 237° Southwest 429 494 36,000 1,328 Climbing Kansas City Center
Tue 10:39:28 PM 37.0925 -99.8925 237° Southwest 423 487 37,200 984 Climbing Kansas City Center
Tue 10:40:29 PM 37.0342 -100.0089 238° Southwest 415 478 38,000 393 Climbing Kansas City Center
Tue 10:41:30 PM 37.0042 -100.1631 256° West 406 467 38,000  Level Kansas City Center
Tue 10:42:31 PM 36.9783 -100.2964 256° West 408 470 38,000  Level Kansas City Center
Tue 10:43:32 PM 36.9542 -100.4308 257° West 411 473 38,000  Level Kansas City Center
Tue 10:44:33 PM 36.9247 -100.5869 257° West 413 475 38,000  Level Kansas City Center
Tue 10:45:34 PM 36.8986 -100.7200 256° West 411 473 38,000  Level Kansas City Center
Tue 10:46:34 PM 36.8744 -100.8533 257° West 412 474 38,000  Level Kansas City Center
Tue 10:47:35 PM 36.8453 -101.0064 257° West 408 470 38,000  Level Kansas City Center
Tue 10:48:36 PM 36.8194 -101.1389 256° West 408 470 38,000  Level Kansas City Center
Tue 10:49:37 PM 36.7936 -101.2711 256° West 409 471 38,000  Level Kansas City Center
Tue 10:50:38 PM 36.7644 -101.4267 257° West 411 473 38,000  Level Kansas City Center
Tue 10:51:39 PM 36.7381 -101.5589 256° West 411 473 38,000  Level Kansas City Center
Tue 10:52:40 PM 36.7122 -101.6903 256° West 410 472 38,000  Level Kansas City Center
Tue 10:53:41 PM 36.6825 -101.8400 256° West 401 461 38,000  Level Kansas City Center
Tue 10:54:42 PM 36.6564 -101.9683 256° West 399 459 38,000  Level Kansas City Center
Tue 10:55:41 PM 36.6300 -102.0956 256° West 398 458 38,000  Level Albuquerque Center
Tue 10:56:42 PM 36.6061 -102.2200 257° West 395 455 38,000  Level Albuquerque Center
Tue 10:57:43 PM 36.5731 -102.3800 256° West 399 459 38,000  Level Albuquerque Center
Tue 10:58:44 PM 36.5458 -102.5128 256° West 399 459 38,000  Level Albuquerque Center
Tue 10:59:46 PM 36.5183 -102.6436 255° West 396 456 38,000  Level Albuquerque Center
Tue 11:00:47 PM 36.4914 -102.7778 256° West 399 459 38,000  Level Albuquerque Center
Tue 11:01:48 PM 36.4611 -102.9211 255° West 396 456 38,000  Level Albuquerque Center
Tue 11:02:49 PM 36.4331 -103.0550 255° West 398 458 38,000  Level Albuquerque Center
Tue 11:03:51 PM 36.4042 -103.1911 255° West 403 464 38,000  Level Albuquerque Center
Tue 11:04:52 PM 36.3753 -103.3267 255° West 404 465 38,000  Level Albuquerque Center
Tue 11:05:53 PM 36.3461 -103.4650 255° West 409 471 38,000  Level Albuquerque Center
Tue 11:06:54 PM 36.3161 -103.6028 255° West 411 473 38,000  Level Albuquerque Center
Tue 11:07:56 PM 36.2867 -103.7392 255° West 410 472 38,000  Level Albuquerque Center
Tue 11:08:57 PM 36.2569 -103.8742 255° West 407 468 38,000  Level Albuquerque Center
Tue 11:09:59 PM 36.2281 -104.0103 255° West 406 467 38,000  Level Albuquerque Center
Tue 11:11:00 PM 36.1975 -104.1456 254° West 406 467 38,000  Level Albuquerque Center
Tue 11:12:01 PM 36.1669 -104.2786 254° West 403 464 38,000  Level Albuquerque Center
Tue 11:13:03 PM 36.1306 -104.4375 254° West 406 467 38,000  Level Albuquerque Center
Tue 11:14:04 PM 36.1011 -104.5731 255° West 406 467 38,000  Level Albuquerque Center
Tue 11:15:05 PM 36.0706 -104.7081 254° West 405 466 38,000  Level Albuquerque Center
Tue 11:16:07 PM 36.0403 -104.8417 254° West 405 466 38,000  Level Albuquerque Center
Tue 11:17:08 PM 36.0072 -104.9800 254° West 413 475 38,000  Level Albuquerque Center
Tue 11:18:09 PM 35.9750 -105.1178 254° West 415 478 38,000  Level Albuquerque Center
Tue 11:19:11 PM 35.9433 -105.2564 254° West 418 481 38,000  Level Albuquerque Center
Tue 11:20:12 PM 35.9114 -105.3944 254° West 417 480 38,000  Level Albuquerque Center
Tue 11:21:14 PM 35.8803 -105.5283 254° West 408 470 38,000  Level Albuquerque Center
Tue 11:22:15 PM 35.8458 -105.6736 254° West 401 461 38,000  Level Albuquerque Center
Tue 11:23:16 PM 35.8150 -105.8044 254° West 399 459 38,000  Level Albuquerque Center
Tue 11:24:18 PM 35.7833 -105.9347 253° West 398 458 38,000  Level Albuquerque Center
Tue 11:25:19 PM 35.7528 -106.0639 254° West 396 456 38,000  Level Albuquerque Center
Tue 11:26:21 PM 35.7228 -106.1919 254° West 393 452 38,000  Level Albuquerque Center
Tue 11:27:22 PM 35.6894 -106.3353 254° West 389 448 38,000  Level Albuquerque Center
Tue 11:28:23 PM 35.6586 -106.4561 253° West 387 445 38,000  Level Albuquerque Center
Tue 11:29:25 PM 35.6317 -106.5714 254° West 387 445 38,000  Level Albuquerque Center
Tue 11:30:26 PM 35.5925 -106.7300 253° West 401 461 38,000  Level Albuquerque Center
Tue 11:31:28 PM 35.5614 -106.8581 253° West 398 458 38,000  Level Albuquerque Center
Tue 11:32:29 PM 35.5289 -106.9844 252° West 393 452 38,000  Level Albuquerque Center
Tue 11:33:31 PM 35.4978 -107.1131 253° West 395 455 38,000  Level Albuquerque Center
Tue 11:34:32 PM 35.4650 -107.2411 253° West 397 457 38,000  Level Albuquerque Center
Tue 11:35:33 PM 35.4286 -107.3886 253° West 402 463 38,000  Level Albuquerque Center
Tue 11:36:35 PM 35.3961 -107.5136 252° West 402 463 38,000  Level Albuquerque Center
Tue 11:37:36 PM 35.3600 -107.6544 253° West 394 453 38,000  Level Albuquerque Center
Tue 11:38:37 PM 35.3303 -107.7717 253° West 383 441 38,000  Level Albuquerque Center
Tue 11:39:39 PM 35.3011 -107.8892 253° West 377 434 38,000  Level Albuquerque Center
Tue 11:40:40 PM 35.2653 -108.0269 252° West 378 435 38,000  Level Albuquerque Center
Tue 11:41:42 PM 35.2344 -108.1450 252° West 380 437 38,000  Level Albuquerque Center
Tue 11:42:43 PM 35.1983 -108.2850 253° West 384 442 38,000  Level Albuquerque Center
Tue 11:43:44 PM 35.1661 -108.4056 252° West 386 444 38,000  Level Albuquerque Center
Tue 11:44:46 PM 35.1339 -108.5250 252° West 386 444 38,000  Level Albuquerque Center
Tue 11:45:47 PM 35.0978 -108.6625 252° West 382 440 38,000  Level Albuquerque Center
Tue 11:46:48 PM 35.0658 -108.7831 252° West 385 443 38,000  Level Albuquerque Center
Tue 11:47:50 PM 35.0353 -108.9028 253° West 385 443 38,000  Level Albuquerque Center
Tue 11:48:51 PM 34.9969 -109.0431 252° West 388 447 38,000  Level Albuquerque Center
Tue 11:49:52 PM 34.9647 -109.1600 251° West 384 442 38,000 -390 Level Albuquerque Center
Tue 11:50:54 PM 34.9167 -109.2947 247° West 384 442 37,200 -829 Descending Albuquerque Center
Tue 11:51:55 PM 34.8744 -109.4097 246° West 388 447 36,300 -590 Descending Albuquerque Center
Tue 11:52:56 PM 34.8328 -109.5194 245° Southwest 377 434 36,000 -148 Descending Albuquerque Center
Tue 11:53:57 PM 34.7850 -109.6481 246° West 373 429 36,000  Level Albuquerque Center
Tue 11:54:58 PM 34.7450 -109.7569 246° West 369 425 36,000 -293 Level Albuquerque Center
Tue 11:56:00 PM 34.7036 -109.8678 246° West 373 429 35,400 -829 Descending Albuquerque Center
Tue 11:57:01 PM 34.6558 -109.9964 246° West 374 430 34,300 -984 Descending Albuquerque Center
Tue 11:58:02 PM 34.6144 -110.1072 246° West 375 432 33,400 -984 Descending Albuquerque Center
Tue 11:59:03 PM 34.5697 -110.2411 248° West 378 435 32,300 -1,033 Descending Albuquerque Center
Wed 12:00:04 AM 34.5239 -110.3475 242° Southwest 375 432 31,300 -984 Descending Albuquerque Center
Wed 12:01:05 AM 34.4872 -110.4508 247° West 368 423 30,300 -976 Descending Albuquerque Center
Wed 12:02:07 AM 34.4500 -110.5539 246° West 344 396 29,300 -976 Descending Albuquerque Center
Wed 12:03:08 AM 34.4125 -110.6569 246° West 336 387 28,300 -1,082 Descending Albuquerque Center
Wed 12:04:09 AM 34.3622 -110.7747 243° Southwest 331 381 27,100 -1,525 Descending Albuquerque Center
Wed 12:05:10 AM 34.3053 -110.8594 231° Southwest 329 379 25,200 -1,869 Descending Albuquerque Center
Wed 12:06:11 AM 34.2464 -110.9347 227° Southwest 314 361 23,300 -1,820 Descending Albuquerque Center
Wed 12:07:12 AM 34.1892 -111.0094 227° Southwest 307 353 21,500 -1,721 Descending Albuquerque Center
Wed 12:08:13 AM 34.1358 -111.0789 227° Southwest 290 334 19,800 -1,721 Descending Albuquerque Center
Wed 12:09:14 AM 34.0806 -111.1506 227° Southwest 289 333 18,000 -1,770 Descending Albuquerque Center
Wed 12:10:15 AM 34.0239 -111.2225 226° Southwest 293 337 16,200 -1,721 Descending Albuquerque Center
Wed 12:11:16 AM 33.9681 -111.2947 227° Southwest 294 338 14,500 -1,820 Descending Albuquerque Center
Wed 12:12:17 AM 33.9064 -111.3756 227° Southwest 293 337 12,500 -1,426 Descending Albuquerque Center
Wed 12:13:18 AM 33.8547 -111.4286 220° Southwest 278 320 11,600 -738 Descending Albuquerque Center
Wed 12:14:19 AM 33.7953 -111.4789 215° Southwest 263 303 11,000 -738 Descending Albuquerque Center
Wed 12:15:20 AM 33.7367 -111.5294 216° Southwest 259 298 10,100 -836 Descending Albuquerque Center
Wed 12:16:21 AM 33.6814 -111.5772 216° Southwest 248 285 9,300 -738 Descending Albuquerque Center
Wed 12:17:22 AM 33.6289 -111.6208 215° Southwest 234 269 8,600 -893 Descending Albuquerque Center
Wed 12:18:22 AM 33.5797 -111.6625 215° Southwest 221 254 7,500 -1,140 Descending Albuquerque Center
Wed 12:19:23 AM 33.5286 -111.7042 214° Southwest 220 253 6,300 -1,131 Descending Albuquerque Center
Wed 12:20:24 AM 33.5000 -111.7656 241° Southwest 213 245 5,200 -1,180 Descending Albuquerque Center
Wed 12:21:25 AM 33.4664 -111.8325 239° Southwest 203 234 3,900 -1,033 Descending Albuquerque Center
Wed 12:22:26 AM 33.4439 -111.8772 239° Southwest 181 208 3,100 -787 Descending Albuquerque Center

Login

Don't have an account? Register now (free) for customized features, flight alerts, and more!